Tiempo atmosférico en la estación meteorológica de Herrera Del Duque, Badajoz (447 m.)



Fecha
DESCASC
Temp. máxima en grados centígrados (hora)
DESCASC
Temp. mínima en grados centígrados (hora)
DESCASC
Temp. media en grados centígrados
DESCASC
Racha de viento máxima en m/sg (hora)
DESCASC
Velocidad máxima media en intervalos de 10 minutos(hora)
DESCASC
Precipitaciones diarias en mm
DESCASC
Precipitaciones de 00:00 a 06:00 en mm
DESCASC
Precipitaciones de 06:00 a 12:00 en mm
DESCASC
Precipitaciones de 12:00 a 18:00 en mm
DESCASC
Precipitaciones de 18:00 a 24:00 en mm
DESCASC
25-04-2019 15.4 (17:20) 9.3 (06:20) 12.3 17.22 (01:20) 9.72 (01:20) 17.8 13.4 1.2 2 1.2
24-04-2019 15 (14:30) 6.8 (03:10) 10.9 19.44 (19:10) 10.28 (19:10) 25.8 0.2 1 10 14.6
23-04-2019 16.3 (00:00) 7.5 (16:40) 11.9 14.17 (15:20) 7.22 (20:00) 6.6 3.2 1.8 0.8 0.8
22-04-2019 22.1 (18:00) 5.7 (00:00) 13.9 9.17 (17:00) 5 (20:10) 0 0 0 0 0
21-04-2019 18.5 (14:30) 8.4 (00:00) 13.4 10.28 (00:10) 6.11 (00:10) 0 0 0 0 0
20-04-2019 17.8 (15:30) 8.7 (00:00) 13.2 14.17 (23:10) 7.78 (23:10) 3.4 2.8 0.6 0 0
19-04-2019 17.9 (15:20) 9.6 (00:00) 13.8 11.94 (17:30) 6.11 (17:30) 4 0 0 2.8 1.2
18-04-2019 19.4 (15:30) 8.9 (00:00) 14.1 8.61 (17:20) 5.56 (17:20) 2 2 0 0 0
17-04-2019 22 (15:30) 10.2 (00:00) 16.1 10 (16:00) 5.28 (20:50) 1 0 0 0 1
16-04-2019 24.4 (18:40) 6.4 (00:00) 15.4 7.22 (18:20) 3.89 (21:40) 0 0 0 0 0
15-04-2019 23.2 (16:30) 10.4 (00:00) 16.8 12.5 (17:20) 8.06 (17:20) 0 0 0 0 0
14-04-2019 23.1 (17:40) 12.1 (00:00) 17.6 5.28 (18:40) 2.78 (18:50) 0 0 0 0 0
13-04-2019 23 (18:20) 5.1 (00:00) 14 9.17 (15:10) 4.17 (19:50) 0 0 0 0 0
12-04-2019 20.8 (17:30) 3.8 (00:00) 12.3 7.22 (17:00) 4.17 (15:30) 0 0 0 0 0
11-04-2019 19.6 (18:00) 2.5 (00:00) 11.1 6.67 (15:00) 3.61 (19:30) 0 0 0 0 0
10-04-2019 17 (16:40) 6.8 (00:00) 11.9 11.39 (16:50) 7.5 (16:50) 0 0 0 0 0
09-04-2019 15.2 (18:40) 8.2 (00:00) 11.7 15 (16:10) 7.5 (16:10) 7.2 0 5.4 1.8 0
08-04-2019 17.3 (16:20) 9.6 (00:00) 13.4 12.5 (18:40) 6.94 (16:50) 4 2 1 0 1
07-04-2019 13.5 (16:20) 7.2 (00:00) 10.3 12.5 (03:30) 6.67 (03:20) 4 1 0 0 3
06-04-2019 11.8 (14:00) 3.8 (00:00) 7.8 17.22 (14:50) 9.17 (14:50) 5.8 0 1.8 4 0
05-04-2019 12 (00:00) 6 (00:00) 9 15 (16:10) 8.06 (16:10) 15.2 4.6 9.8 0.4 0.4
04-04-2019 17.5 (17:10) -0.1 (00:00) 8.7 8.89 (20:50) 5.28 (17:10) 0 0 0 0 0
03-04-2019 18.4 (17:00) 8.7 (00:00) 13.5 11.11 (15:10) 6.94 (16:40) 0 0 0 0 0
02-04-2019 20.5 (17:00) 8.8 (00:00) 14.7 8.06 (21:00) 5 (19:10) 0 0 0 0 0
01-04-2019 17.4 (18:50) 9.2 (00:00) 13.3 5.28 (18:50) 3.33 (16:30) 2.2 0 0 2.2 0
31-03-2019 20.6 (16:10) 7.7 (00:00) 14.2 6.94 (17:20) 4.72 (17:10) 0 0 0 0 0
30-03-2019 22.6 (16:30) 5.2 (00:00) 13.9 14.17 (20:20) 7.5 (20:20) 1.4 0 0 0 1.4
29-03-2019 21.1 (17:30) 4.4 (00:00) 12.8 10.83 (01:30) 6.94 (01:10) 0 0 0 0 0
28-03-2019 21.6 (16:30) 2.8 (00:00) 12.2 10.28 (23:40) 6.39 (23:50) 0 0 0 0 0
27-03-2019 20.8 (16:50) 6.2 (00:00) 13.5 11.11 (13:00) 6.11 (15:00) 0 0 0 0 0

Gráficas

Temp. máximas Temp. mínimas Temp. medias Precipitaciones Rachas de viento máximas Velocidades máximas media en intervalos de 10 minutos

Datos horarios

Fecha y hora oficial Temperatura (ºC) Velocidad del viento (km/h) Dirección del viento Racha (km/h) Dirección de racha Precipitación (mm) Presión (hPa) Tendencia (hPa) Humedad (%)
2019-04-25 23:00:00 10.8 16 Oeste 27 Sudoeste 0 967.5 3 57
2019-04-25 22:00:00 11.1 12 Oeste 26 Oeste 0 966.5 2.2 67
2019-04-25 21:00:00 11.5 17 Oeste 32 Oeste 0.2 965.4 1.6 69
2019-04-25 20:00:00 11.8 17 Sudoeste 27 Sudoeste 0 964.5 1.5 71
2019-04-25 19:00:00 11.6 19 Sudoeste 48 Oeste 1 964.3 0.9 68
2019-04-25 18:00:00 11.9 15 Oeste 52 Noroeste 1 963.8 1.3 71
2019-04-25 17:00:00 15.1 21 Oeste 42 Oeste 0.2 963 0.6 49
2019-04-25 16:00:00 10.4 25 Noroeste 53 Noroeste 0 963.4 0.9 76
2019-04-25 15:00:00 11.6 23 Oeste 45 Oeste 0.8 962.5 0.6 76
2019-04-25 14:00:00 12.4 26 Oeste 46 Oeste 0 962.4 1 62
2019-04-25 13:00:00 13.3 21 Oeste 45 Sudoeste 0 962.5 1.6 57
2019-04-25 12:00:00 12.1 18 Oeste 38 Oeste 0.6 961.9 1.8 63
2019-04-25 11:00:00 11.4 16 Oeste 48 Oeste 0 961.4 2.1 67
2019-04-25 10:00:00 10.6 14 Sudoeste 31 Oeste 0.2 960.9 2.4 74
2019-04-25 09:00:00 10 13 Sudoeste 35 Oeste 0 960.1 1.8 77
2019-04-25 08:00:00 9.7 18 Oeste 35 Sudoeste 0 959.3 1.5 79
2019-04-25 07:00:00 9.5 15 Sudoeste 38 Sudoeste 0.4 958.5 0.8 78
2019-04-25 06:00:00 9.8 26 Oeste 53 Oeste 0.2 958.3 0.2 72
2019-04-25 05:00:00 10.4 17 Oeste 39 Sudoeste 0 957.8 0.3 81
2019-04-25 04:00:00 10.3 13 Oeste 35 Oeste 0 957.7 1.6 83
2019-04-25 03:00:00 10.3 17 Oeste 35 Sudoeste 0.2 958.1 2.5 85
2019-04-25 02:00:00 10.7 23 Oeste 62 Oeste 3.2 957.5 1.9 82
2019-04-25 01:00:00 12.7 20 Oeste 38 Sur 9.8 956.1 0.5 88
2019-04-25 00:00:00 13 18 Sudoeste 43 Sur 4.6 955.6 0.3 85
2019-04-24 23:00:00 13.5 16 Sudoeste 45 Sudoeste 0.8 955.6 0.9 81
2019-04-24 22:00:00 13.6 15 Sudoeste 40 Sudoeste 0.2 955.6 1.1 80
2019-04-24 21:00:00 13.8 19 Sudoeste 52 Sudoeste 0 955.3 1.6 79
2019-04-24 20:00:00 13.3 30 Sudoeste 70 Oeste 6 954.7 1.4 80
2019-04-24 19:00:00 13.1 30 Oeste 66 Oeste 3 954.5 0.4 82
2019-04-24 18:00:00 13.3 22 Sudoeste 68 Sur 5.8 953.7 0 84
2019-04-24 17:00:00 13.9 23 Sur 50 Sudoeste 0.6 953.3 -0.6 78
2019-04-24 16:00:00 13 24 Sudoeste 62 Sudoeste 3.4 954.1 -0.2 82
2019-04-24 15:00:00 14 19 Sudoeste 53 Sudoeste 0.2 953.7 -0.5 72
2019-04-24 14:00:00 14.2 24 Sudoeste 45 Sudoeste 0 953.9 -0.1 64
2019-04-24 13:00:00 13.1 26 Sudoeste 53 Sudoeste 0 954.3 0.8 66
2019-04-24 12:00:00 12.3 21 Sudoeste 63 Sur 0 954.2 0.6 69
2019-04-24 11:00:00 10.9 26 Sudoeste 49 Sudoeste 0.2 954 0.5 73
2019-04-24 10:00:00 9.4 19 Sur 44 Sur 0.4 953.5 0.1 78
2019-04-24 09:00:00 8.5 22 Sur 41 Sur 0.2 953.6 0.2 78
2019-04-24 08:00:00 8.3 18 Sur 37 Sur 0.2 953.5 -0.5 75
2019-04-24 07:00:00 8 14 Sur 29 Sur 0 953.4 -0.9 74
2019-04-24 06:00:00 7.6 12 Sur 28 Sur 0 953.4 -1.2 76
2019-04-24 05:00:00 7.4 12 Sur 25 Sur 0 954 -0.4 76
2019-04-24 04:00:00 7 13 Sudoeste 24 Sudoeste 0 954.3 -0.1 79
2019-04-24 03:00:00 6.9 10 Sudoeste 28 Sudoeste 0.2 954.6 0.7 79
2019-04-24 02:00:00 7.2 15 Sudoeste 31 Sudoeste 0 954.4 1 75
2019-04-24 01:00:00 7.4 13 Sudoeste 27 Sudoeste 0 954.4 1.9 74
2019-04-24 00:00:00 7.7 13 Sudoeste 35 Sudoeste 0 953.9 2.4 75
2019-04-23 23:00:00 8.1 17 Sudoeste 33 Sudoeste 0 953.4 2.5 73
2019-04-23 22:00:00 8.4 17 Sudoeste 30 Oeste 0 952.5 2.5 69
2019-04-23 21:00:00 8.9 15 Sudoeste 37 Sudoeste 0 951.5 2 62
2019-04-23 20:00:00 8.3 26 Oeste 49 Sudoeste 0.2 950.9 1.1 66
2019-04-23 19:00:00 9.5 20 Sudoeste 46 Sudoeste 0.6 950 0.7 71
2019-04-23 18:00:00 11.2 10 Sudoeste 26 Sudoeste 0 949.5 0.5 64
2019-04-23 17:00:00 8.3 16 Oeste 38 Noroeste 0.2 949.8 0.9 76
2019-04-23 16:00:00 10.7 20 Sudoeste 51 Sudoeste 0.2 949.3 0.5 69
2019-04-23 15:00:00 10.4 18 Oeste 41 Oeste 0.4 949 0 65
2019-04-23 14:00:00 10.5 23 Oeste 42 Oeste 0 948.9 0.3 63
2019-04-23 13:00:00 12.7 21 Oeste 36 Sudoeste 0 948.8 0.8 51
2019-04-23 12:00:00 10.8 19 Oeste 36 Sudoeste 0 949 1.7 63
2019-04-23 11:00:00 9.4 14 Oeste 32 Oeste 0 948.6 1.8 70
2019-04-23 10:00:00 8.5 16 Oeste 36 Sudoeste 0 948 1.2 79
2019-04-23 09:00:00 8.8 13 Oeste 36 Oeste 0 947.3 0.8 82
2019-04-23 08:00:00 8.9 15 Sudoeste 28 Oeste 0.6 946.8 0.3 84
2019-04-23 07:00:00 9.2 14 Sudoeste 30 Oeste 1.2 946.8 0.1 86
2019-04-23 06:00:00 9.8 21 Oeste 44 Oeste 1.4 946.5 -0.7 84
2019-04-23 05:00:00 11.7 15 Sudoeste 36 Sudoeste 1.4 946.5 -1.1 83
2019-04-23 04:00:00 13 9 Sudoeste 28 Sudoeste 0.4 946.7 -1.2 76
2019-04-23 03:00:00 14.1 14 Sudoeste 33 Sudoeste 0 947.2 -0.8 60
2019-04-23 02:00:00 15 13 Sudoeste 24 Oeste 0 947.6 -0.6 54
2019-04-23 01:00:00 15.6 13 Oeste 34 Oeste 0 947.9 -0.2 49
2019-04-23 00:00:00 16.3 12 Sudoeste 23 Oeste 0 948 0 45
2019-04-22 23:00:00 16.5 10 Oeste 24 Oeste 0 948.2 0.3 39
2019-04-22 22:00:00 17.1 14 Oeste 29 Oeste 0 948.1 0.1 37
2019-04-22 21:00:00 17.9 10 Oeste 33 Oeste 0 948 -0.4 33
2019-04-22 20:00:00 19.5 14 Oeste 28 Oeste 0 947.9 -1.2 33
2019-04-22 19:00:00 20.6 14 Oeste 31 Sudoeste 0 948 -2 30
2019-04-22 18:00:00 22 8 Sudoeste 30 Oeste 0 948.4 -2.3 31
2019-04-22 17:00:00 21 15 Oeste 33 Sudoeste 0 949.1 -2.4 33
2019-04-22 16:00:00 20.7 8 Oeste 31 Oeste 0 950 -2.6 36
2019-04-22 15:00:00 19.6 12 Oeste 26 Oeste 0 950.7 -2.4 40
2019-04-22 14:00:00 18.7 11 Oeste 24 Oeste 0 951.5 -1.8 45
2019-04-22 13:00:00 17.7 10 Oeste 17 Oeste 0 952.6 -0.9 46
2019-04-22 12:00:00 16.9 5 Noroeste 13 Oeste 0 953.1 -0.3 50
2019-04-22 11:00:00 15 4 Oeste 9 Oeste 0 953.3 0 58
2019-04-22 10:00:00 12.4 3 Norte 8 Norte 0 953.5 0.5 69
2019-04-22 09:00:00 7.8 0 Calma 4 Sudoeste 0 953.4 0 87
2019-04-22 08:00:00 6.4 3 Sur 6 Sudoeste 0 953.3 -0.9 88
2019-04-22 07:00:00 6.8 0 Calma 5 Oeste 0 953 -1.9 84
2019-04-22 06:00:00 6.6 2 Nordeste 5 Sur 0 953.4 -1.9 81
2019-04-22 05:00:00 7.9 2 Sur 8 Sudeste 0 954.2 -1.6 81
2019-04-22 04:00:00 8.4 4 Sur 7 Sudeste 0 954.9 -1.5 81
2019-04-22 03:00:00 9.1 4 Sudoeste 8 Sudeste 0 955.3 -1.3 78
2019-04-22 02:00:00 10.2 4 Sur 6 Sudeste 0 955.8 -0.9 76
2019-04-22 01:00:00 11.6 0 Calma 6 Sudeste 0 956.4 0 71
2019-04-22 00:00:00 12.3 2 Noroeste 7 Nordeste 0 956.6 0.5 68
2019-04-21 23:00:00 13.1 4 Nordeste 11 Este 0 956.7 0.5 63
2019-04-21 22:00:00 14 7 Este 18 Nordeste 0 956.4 0.2 55
2019-04-21 21:00:00 14.6 7 Nordeste 13 Norte 0 956.1 -0.4 54
2019-04-21 20:00:00 15.7 6 Nordeste 10 Este 0 956.2 -0.7 50
2019-04-21 19:00:00 15.8 7 Este 17 Este 0 956.2 -1.1 47
2019-04-21 18:00:00 15.6 9 Sudeste 23 Sudeste 0 956.5 -1 47
2019-04-21 17:00:00 16.6 9 Este 23 Este 0 956.9 -1.3 43
2019-04-21 16:00:00 16.7 14 Este 31 Este 0 957.3 -1.7 42
2019-04-21 15:00:00 17.9 16 Nordeste 29 Nordeste 0 957.5 -1.9 43
2019-04-21 14:00:00 17.5 14 Este 29 Nordeste 0 958.2 -1.2 45
2019-04-21 13:00:00 16.1 15 Nordeste 26 Este 0 959 -0.6 50
2019-04-21 12:00:00 14.6 10 Nordeste 30 Nordeste 0 959.4 -0.5 53
2019-04-21 11:00:00 13.4 18 Nordeste 27 Nordeste 0 959.4 -0.9 55
2019-04-21 10:00:00 11.5 7 Norte 12 Noroeste 0 959.6 -0.7 68
2019-04-21 09:00:00 10.5 3 Sudeste 6 Oeste 0 959.9 -0.7 69
2019-04-21 08:00:00 8.7 3 Sur 6 Sur 0 960.3 -0.8 75
2019-04-21 07:00:00 8.7 4 Este 13 Este 0 960.3 -1.2 71
2019-04-21 06:00:00 8.6 6 Este 14 Nordeste 0 960.6 -1.7 71
2019-04-21 05:00:00 9.3 7 Nordeste 16 Este 0 961.1 -2.2 67
2019-04-21 04:00:00 10.5 9 Este 18 Este 0 961.5 -2.1 63
2019-04-21 03:00:00 11.2 5 Este 20 Este 0 962.3 -1.3 62
2019-04-21 02:00:00 11.7 14 Nordeste 28 Nordeste 0 963.3 0 60
2019-04-21 01:00:00 12.5 14 Este 37 Este 0 963.6 0.3 55
2019-04-21 00:00:00 13 21 Este 51 Sudeste 0 963.6 0.5 54
2019-04-20 23:00:00 14.2 28 Este 49 Este 0 963.3 0.3 46
2019-04-20 22:00:00 13.5 26 Este 44 Sudeste 0 963.3 0.3 56
2019-04-20 21:00:00 12.8 23 Este 47 Sudeste 0 963.1 0.4 66
2019-04-20 20:00:00 14.4 23 Este 45 Sudeste 0 963 0.2 55
2019-04-20 19:00:00 15.2 22 Este 39 Este 0 963 0.1 53
2019-04-20 18:00:00 16.4 15 Este 26 Este 0 962.7 -0.3 53
2019-04-20 17:00:00 16.9 13 Este 27 Este 0 962.8 -0.3 52
2019-04-20 16:00:00 17.6 16 Nordeste 28 Este 0 962.9 -0.2 50
2019-04-20 15:00:00 17 13 Este 26 Nordeste 0 963 -0.3 52
2019-04-20 14:00:00 15.7 9 Este 18 Nordeste 0 963.1 0.4 61
2019-04-20 13:00:00 14.8 12 Nordeste 19 Este 0 963.1 0.2 63
2019-04-20 12:00:00 13.9 6 Nordeste 12 Norte 0 963.3 0.2 70
2019-04-20 11:00:00 13.1 3 Sudoeste 10 Oeste 0 962.7 0.1 73
2019-04-20 10:00:00 12.1 5 Oeste 9 Sudoeste 0 962.9 -0.1 80
2019-04-20 09:00:00 10.6 4 Sudoeste 7 Sudoeste 0 963.1 -0.4 89
2019-04-20 08:00:00 10.1 3 Sudoeste 5 Este 0 962.6 -1.5 90
2019-04-20 07:00:00 9.9 5 Nordeste 12 Nordeste 0.6 963 -1 91
2019-04-20 06:00:00 10 3 Norte 17 Nordeste 2.2 963.5 -1.5 88
2019-04-20 05:00:00 9.8 8 Nordeste 16 Este 0.6 964.1 -1.2 86
2019-04-20 04:00:00 9.3 7 Norte 10 Norte 0 964 -1.8 83
2019-04-20 03:00:00 9.3 5 Nordeste 11 Nordeste 0 965 -0.6 80
2019-04-20 02:00:00 9.1 6 Nordeste 12 Este 0 965.3 -0.2 80
2019-04-20 01:00:00 8.9 8 Norte 18 Norte 0 965.8 1.1 80
2019-04-20 00:00:00 9.6 9 Norte 22 Sudeste 0 965.6 1.5 77
2019-04-19 23:00:00 11 8 Este 17 Este 0 965.5 1.9 74
2019-04-19 22:00:00 11.3 9 Este 24 Este 0 964.7 1.1 74
2019-04-19 21:00:00 11.5 11 Este 20 Este 0 964.1 0.8 77
2019-04-19 20:00:00 11.8 10 Este 18 Este 0.4 963.6 1.4 79
2019-04-19 19:00:00 12.2 6 Nordeste 11 Sudeste 0.8 963.6 1.4 81
2019-04-19 18:00:00 12.1 9 Sudeste 43 Nordeste 1.8 963.3 0.9 79
2019-04-19 17:00:00 13.8 9 Sur 23 Norte 0.8 962.2 -0.5 70
2019-04-19 16:00:00 16.6 8 Norte 21 Norte 0 962.2 -1.2 55
2019-04-19 15:00:00 17.2 9 Nordeste 16 Este 0 962.4 -1 50
2019-04-19 14:00:00 15.9 5 Sudeste 16 Sudoeste 0 962.7 -0.3 53
2019-04-19 13:00:00 15.3 9 Sur 18 Sudeste 0.2 963.4 0.7 59
2019-04-19 12:00:00 13.1 7 Sudeste 10 Este 0 963.4 1 66
2019-04-19 11:00:00 12.8 3 Este 9 Sudeste 0 963 1.1 69
2019-04-19 10:00:00 11.8 2 Sur 6 Oeste 0 962.7 1.5 74
2019-04-19 09:00:00 10.7 4 Sudeste 6 Sudoeste 0 962.4 1.4 79
2019-04-19 08:00:00 10.3 3 Sur 8 Sur 0 961.9 0.6 82
2019-04-19 07:00:00 10.1 4 Sur 9 Sudoeste 0 961.2 -0.1 84
2019-04-19 06:00:00 10 6 Sudoeste 10 Sudoeste 0 961 -0.3 82
2019-04-19 05:00:00 10 5 Sudoeste 9 Sudoeste 0 961.3 -0.2 84
2019-04-19 04:00:00 10 4 Sudoeste 11 Sudoeste 0 961.3 -0.3 85
2019-04-19 03:00:00 10.1 3 Sur 14 Sudoeste 0 961.3 -0.2 84
2019-04-19 02:00:00 10.4 4 Sudoeste 15 Sudoeste 0 961.5 0.2 80
2019-04-19 01:00:00 10.8 7 Oeste 22 Oeste 0 961.6 0.9 80
2019-04-19 00:00:00 11.5 7 Sudoeste 19 Sudoeste 0 961.5 1.3 73
2019-04-18 23:00:00 10.6 2 Sudeste 7 Sur 0 961.3 1.3 77
2019-04-18 22:00:00 11.1 4 Oeste 7 Noroeste 0 960.7 1 74
2019-04-18 21:00:00 12 5 Norte 21 Noroeste 0 960.2 1 68
2019-04-18 20:00:00 14.3 14 Noroeste 24 Noroeste 0 960 0.6 60
2019-04-18 19:00:00 15.1 17 Norte 28 Norte 0 959.7 0.3 57
2019-04-18 18:00:00 15.8 13 Noroeste 31 Noroeste 0 959.2 0 52
2019-04-18 17:00:00 14.5 15 Noroeste 30 Noroeste 0 959.4 -0.4 56
2019-04-18 16:00:00 15.7 12 Este 24 Norte 0 959.4 -1 52
2019-04-18 15:00:00 17.6 10 Noroeste 20 Norte 0 959.2 -1.9 44
2019-04-18 14:00:00 17.5 8 Norte 18 Norte 0 959.8 -1.9 50
2019-04-18 13:00:00 16.1 7 Norte 14 Norte 0 960.4 -0.6 59
2019-04-18 12:00:00 14.4 4 Noroeste 9 Oeste 0 961.1 0.1 68
2019-04-18 11:00:00 12.4 3 Sudoeste 6 Norte 0 961.7 0.9 77
2019-04-18 10:00:00 11.5 3 Este 6 Nordeste 0 961 0.6 87
2019-04-18 09:00:00 10.2 0 Calma 6 Sur 0 961 0.9 91
2019-04-18 08:00:00 8.9 2 Norte 7 Nordeste 0 960.8 0.5 88
2019-04-18 07:00:00 9.7 4 Sur 8 Sur 0 960.4 -0.4 86
2019-04-18 06:00:00 10 5 Sudoeste 7 Sudoeste 0 960.1 -1.5 85
2019-04-18 05:00:00 9.8 5 Sudeste 8 Sudeste 0 960.3 -1.4 87
2019-04-18 04:00:00 10.7 2 Sudeste 8 Sudoeste 0 960.8 -1.4 88
2019-04-18 03:00:00 10.9 3 Norte 10 Norte 0.2 961.6 0.2 87
2019-04-18 02:00:00 11.7 3 Sur 10 Sudoeste 0.6 961.7 0.6 84
2019-04-18 01:00:00 12.2 8 Sudoeste 17 Sudoeste 1.2 962.2 1.5 77
2019-04-18 00:00:00 13.2 4 Sur 21 Sudoeste 1 961.4 1.9 70
2019-04-17 23:00:00 14.1 6 Sudoeste 18 Sudoeste 0 961.1 2.9 60
2019-04-17 22:00:00 14 10 Sudoeste 25 Sudoeste 0 960.7 2.5 66
2019-04-17 21:00:00 14.3 14 Sudoeste 31 Oeste 0 959.5 2 68
2019-04-17 20:00:00 18.8 13 Sudoeste 32 Sudoeste 0 958.2 0.9 45
2019-04-17 19:00:00 19.5 15 Sudoeste 28 Sur 0 958.2 0.9 41
2019-04-17 18:00:00 20.1 12 Oeste 29 Sudoeste 0 957.5 -0.3 39
2019-04-17 17:00:00 21 15 Sudoeste 31 Sur 0 957.3 -1.1 35
2019-04-17 16:00:00 21.5 17 Sudoeste 36 Sudoeste 0 957.3 -1.7 32
2019-04-17 15:00:00 21 6 Sur 17 Sudeste 0 957.8 -1.8 34
2019-04-17 14:00:00 21.1 4 Norte 9 Noroeste 0 958.4 -1.1 36
2019-04-17 13:00:00 18.7 6 Noroeste 11 Noroeste 0 959 -0.5 47
2019-04-17 12:00:00 17.7 5 Oeste 9 Oeste 0 959.6 0.1 48
2019-04-17 11:00:00 16.3 3 Oeste 11 Noroeste 0 959.5 0.3 47
2019-04-17 10:00:00 13.3 5 Oeste 12 Noroeste 0 959.5 0 60
2019-04-17 09:00:00 11.6 3 Oeste 11 Oeste 0 959.5 0.1 66
2019-04-17 08:00:00 10.8 2 Sudoeste 12 Sudoeste 0 959.2 -0.4 68
2019-04-17 07:00:00 15.6 6 Sur 25 Sudeste 0 959.5 -0.8 40
2019-04-17 06:00:00 15.7 12 Sudeste 31 Sudeste 0 959.4 -1.1 36
2019-04-17 05:00:00 15.9 16 Sudeste 30 Sudeste 0 959.6 -1.2 39
2019-04-17 04:00:00 15.9 12 Sur 30 Sudeste 0 960.3 -0.9 45
2019-04-17 03:00:00 17 17 Sudeste 28 Sudeste 0 960.5 -0.8 46
2019-04-17 02:00:00 16.5 9 Sudeste 17 Sudeste 0 960.8 -0.1 43
2019-04-17 01:00:00 18.3 6 Sur 17 Sur 0 961.2 0.5 37
2019-04-17 00:00:00 19.3 7 Sur 17 Sudeste 0 961.3 0.9 29
2019-04-16 23:00:00 19.7 9 Sudeste 21 Sur 0 960.9 0.3 23
2019-04-16 22:00:00 20.9 12 Sur 26 Sudeste 0 960.7 -0.3 21
2019-04-16 21:00:00 20.6 6 Sudeste 15 Sudeste 0 960.4 -1.1 32
2019-04-16 20:00:00 22.9 8 Sudeste 21 Sudeste 0 960.6 -1.6 25
2019-04-16 19:00:00 24 6 Sudeste 26 Sudeste 0 961 -2.3 23
2019-04-16 18:00:00 24.1 6 Sudeste 21 Sudeste 0 961.5 -2.9 21
2019-04-16 17:00:00 23.6 6 Sudoeste 22 Sudeste 0 962.2 -3 24
2019-04-16 16:00:00 23.4 6 Sur 23 Sudeste 0 963.3 -2.5 27
2019-04-16 15:00:00 21.5 11 Sur 21 Sudeste 0 964.4 -2 29
2019-04-16 14:00:00 20.3 9 Sur 23 Sudeste 0 965.2 -1.3 31
2019-04-16 13:00:00 19.6 8 Sur 18 Sur 0 965.8 -0.8 36
2019-04-16 12:00:00 17.9 5 Nordeste 10 Nordeste 0 966.4 -0.1 48
2019-04-16 11:00:00 14.6 2 Noroeste 7 Norte 0 966.5 0.4 65
2019-04-16 10:00:00 11.6 3 Norte 6 Norte 0 966.6 0.8 76
2019-04-16 09:00:00 8.6 2 Norte 4 Norte 0 966.5 0.3 84
2019-04-16 08:00:00 6.7 2 Sudoeste 6 Sudoeste 0 966.1 0 87
2019-04-16 07:00:00 6.6 0 Calma 8 Oeste 0 965.8 -0.5 86
2019-04-16 06:00:00 6.9 0 Calma 6 Oeste 0 966.2 -0.2 86
2019-04-16 05:00:00 7.5 0 Calma 6 Nordeste 0 966.1 0.2 82
2019-04-16 04:00:00 9 3 Sur 8 Sudoeste 0 966.3 0.7 79
2019-04-16 03:00:00 10 2 Sur 9 Sudoeste 0 966.4 1 76
2019-04-16 02:00:00 12.2 7 Sudoeste 8 Sudoeste 0 965.9 0.8 63
2019-04-16 01:00:00 11.7 4 Sur 8 Sur 0 965.6 1.2 74
2019-04-16 00:00:00 11.4 3 Norte 9 Sudoeste 0 965.4 1.9 74
2019-04-15 23:00:00 13.8 7 Sudoeste 9 Sudoeste 0 965.1 2.2 64
2019-04-15 22:00:00 14.2 6 Sudoeste 14 Noroeste 0 964.4 2.2 63
2019-04-15 21:00:00 15.6 12 Oeste 34 Noroeste 0 963.5 2.2 58
2019-04-15 20:00:00 17.5 16 Oeste 37 Oeste 0 962.9 2.5 57
2019-04-15 19:00:00 17.7 24 Oeste 38 Noroeste 0 962.2 1.5 56
2019-04-15 18:00:00 21 24 Oeste 45 Oeste 0 961.3 0.6 33
2019-04-15 17:00:00 22.4 24 Oeste 37 Noroeste 0 960.4 -0.5 32
2019-04-15 16:00:00 22.3 18 Oeste 41 Oeste 0 960.7 -0.2 37
2019-04-15 15:00:00 23 17 Sudoeste 35 Oeste 0 960.7 -0.5 35
2019-04-15 14:00:00 22.3 15 Oeste 31 Oeste 0 960.9 -0.5 45
2019-04-15 13:00:00 22.4 14 Sudoeste 31 Sur 0 960.9 -0.6 44
2019-04-15 12:00:00 19.7 6 Sudeste 13 Sur 0 961.2 0.2 58
2019-04-15 11:00:00 15.9 2 Oeste 6 Oeste 0 961.4 1 74
2019-04-15 10:00:00 14 4 Oeste 8 Oeste 0 961.5 0.5 82
2019-04-15 09:00:00 12.5 2 Oeste 6 Noroeste 0 961 -0.1 88
2019-04-15 08:00:00 10.7 4 Sudeste 6 Sudeste 0 960.4 -1.1 88
2019-04-15 07:00:00 11.6 3 Oeste 7 Sur 0 961 -1.4 88
2019-04-15 06:00:00 12.1 0 Calma 6 Sur 0 961.1 -1.8 86
2019-04-15 05:00:00 12.5 3 Sur 7 Oeste 0 961.5 -2 84
2019-04-15 04:00:00 13.4 3 Oeste 9 Oeste 0 962.4 -1.1 81
2019-04-15 03:00:00 13.8 0 Calma 7 Oeste 0 962.9 -0.6 82
2019-04-15 02:00:00 13.9 3 Noroeste 9 Norte 0 963.5 -0.5 79
2019-04-15 01:00:00 14.6 0 Calma 8 Sudeste 0 963.5 -0.4 75
2019-04-15 00:00:00 16 4 Sur 9 Sudeste 0 963.5 -0.2 68
2019-04-14 23:00:00 16.8 6 Sudeste 7 Sudeste 0 964 0.3 64
2019-04-14 22:00:00 18.5 6 Sur 8 Sur 0 963.9 0 57
2019-04-14 21:00:00 19.6 4 Sur 13 Sudoeste 0 963.7 -0.3 54
2019-04-14 20:00:00 20.7 7 Sudoeste 13 Oeste 0 963.7 -1 52
2019-04-14 19:00:00 22 9 Oeste 19 Oeste 0 963.9 -1.7 46
2019-04-14 18:00:00 21.7 4 Noroeste 12 Noroeste 0 964 -2.2 48
2019-04-14 17:00:00 22.1 7 Norte 15 Noroeste 0 964.7 -1.9 51
2019-04-14 16:00:00 20.9 4 Norte 13 Noroeste 0 965.6 -1.4 54
2019-04-14 15:00:00 19.2 7 Oeste 15 Oeste 0 966.2 -1.2 60
2019-04-14 14:00:00 17.3 3 Sur 12 Oeste 0 966.6 -0.6 65
2019-04-14 13:00:00 15.6 5 Oeste 12 Oeste 0 967 0.1 74
2019-04-14 12:00:00 14.3 8 Oeste 14 Oeste 0 967.4 0.9 81
2019-04-14 11:00:00 14.6 10 Sudoeste 16 Sur 0 967.2 0.9 78
2019-04-14 10:00:00 13.7 6 Sudoeste 12 Oeste 0 966.9 0.9 82
2019-04-14 09:00:00 13.3 5 Sudoeste 13 Oeste 0 966.5 0.2 83
2019-04-14 08:00:00 13.2 8 Oeste 15 Sudoeste 0 966.3 -0.1 84
2019-04-14 07:00:00 13 6 Sudoeste 15 Sudoeste 0 966 -0.6 82
2019-04-14 06:00:00 12.4 4 Oeste 9 Sudoeste 0 966.3 -0.5 81
2019-04-14 05:00:00 13.4 3 Sudoeste 17 Sudoeste 0 966.4 -0.6 72
2019-04-14 04:00:00 13.2 2 Este 5 Nordeste 0 966.6 -0.4 65
2019-04-14 03:00:00 13.8 0 Calma 12 Sudoeste 0 966.8 -0.4 56
2019-04-14 02:00:00 13.9 7 Sudoeste 10 Sudoeste 0 967 -0.3 54
2019-04-14 01:00:00 14.7 5 Oeste 10 Sudoeste 0 967 0.3 53
2019-04-14 00:00:00 15.8 9 Oeste 14 Oeste 0 967.2 1.2 46
2019-04-13 23:00:00 16.7 6 Oeste 24 Oeste 0 967.3 1.5 40
2019-04-13 22:00:00 17.7 9 Sudoeste 19 Sudoeste 0 966.7 1.2 32
2019-04-13 21:00:00 19.1 8 Sudoeste 21 Oeste 0 966 0.6 30
2019-04-13 20:00:00 21.4 14 Sudoeste 27 Sudoeste 0 965.8 0.1 23
2019-04-13 19:00:00 22.1 14 Sudoeste 26 Oeste 0 965.5 -0.8 23
2019-04-13 18:00:00 22.7 13 Oeste 27 Noroeste 0 965.4 -1.2 27
2019-04-13 17:00:00 22.5 13 Oeste 22 Noroeste 0 965.7 -1.3 30
2019-04-13 16:00:00 22.1 9 Norte 33 Oeste 0 966.3 -1.1 31
2019-04-13 15:00:00 21.2 11 Oeste 25 Sudoeste 0 966.6 -1.1 31
2019-04-13 14:00:00 20.6 9 Sudoeste 26 Oeste 0 967 -0.6 36
2019-04-13 13:00:00 19.1 10 Oeste 18 Oeste 0 967.4 -0.1 37
2019-04-13 12:00:00 17.2 3 Norte 10 Norte 0 967.7 0.2 46
2019-04-13 11:00:00 14.2 6 Sudoeste 10 Noroeste 0 967.6 0.7 54
2019-04-13 10:00:00 11.9 3 Nordeste 6 Sudoeste 0 967.5 1 63
2019-04-13 09:00:00 7.4 2 Norte 5 Norte 0 967.5 1.7 80
2019-04-13 08:00:00 5.9 3 Sur 4 Sur 0 966.9 0.8 80
2019-04-13 07:00:00 5.2 2 Sudoeste 5 Sudoeste 0 966.5 0.4 82
2019-04-13 06:00:00 6.3 3 Sudoeste 5 Sudeste 0 965.8 -0.4 77
2019-04-13 05:00:00 6.7 2 Nordeste 9 Sur 0 966.1 -0.3 73
2019-04-13 04:00:00 6.6 4 Noroeste 6 Oeste 0 966.1 -0.1 77
2019-04-13 03:00:00 7.5 0 Calma 5 Oeste 0 966.2 -0.1 72
2019-04-13 02:00:00 8.1 3 Este 6 Sudeste 0 966.4 0.5 71
2019-04-13 01:00:00 10.4 4 Sur 8 Sudeste 0 966.2 0.9 58
2019-04-13 00:00:00 11.2 3 Sur 9 Sur 0 966.3 1.7 54
2019-04-12 23:00:00 13 0 Calma 6 Sudoeste 0 965.9 1.4 48
2019-04-12 22:00:00 15.1 4 Sudoeste 8 Sudoeste 0 965.3 0.7 38
2019-04-12 21:00:00 17 7 Sudoeste 16 Oeste 0 964.6 -0.1 30
2019-04-12 20:00:00 19.9 9 Oeste 19 Oeste 0 964.5 -0.4 26
2019-04-12 19:00:00 20.2 10 Noroeste 18 Noroeste 0 964.6 -1 27
2019-04-12 18:00:00 20.7 6 Norte 21 Oeste 0 964.7 -1.7 28
2019-04-12 17:00:00 20.3 9 Noroeste 26 Oeste 0 964.9 -1.8 27
2019-04-12 16:00:00 19.6 8 Norte 26 Norte 0 965.6 -1.5 25
2019-04-12 15:00:00 18.5 7 Noroeste 23 Oeste 0 966.4 -1.1 28
2019-04-12 14:00:00 17.7 9 Noroeste 20 Noroeste 0 966.7 -0.8 29
2019-04-12 13:00:00 17 6 Noroeste 11 Noroeste 0 967.1 -0.2 32
2019-04-12 12:00:00 15.2 4 Noroeste 8 Norte 0 967.5 0.2 41
2019-04-12 11:00:00 12.5 3 Oeste 7 Norte 0 967.5 0.7 56
2019-04-12 10:00:00 9.6 6 Norte 8 Norte 0 967.3 0.8 64
2019-04-12 09:00:00 6.9 3 Oeste 6 Sudoeste 0 967.3 1 75
2019-04-12 08:00:00 3.8 0 Calma 5 Sur 0 966.8 0.5 81
2019-04-12 07:00:00 4.4 3 Sur 5 Sur 0 966.5 0.2 81
2019-04-12 06:00:00 5.3 3 Sur 6 Sudoeste 0 966.3 -0.2 77
2019-04-12 05:00:00 6 4 Sudoeste 6 Sudoeste 0 966.3 -0.4 73
2019-04-12 04:00:00 6.1 2 Sudeste 6 Sudeste 0 966.3 -0.3 72
2019-04-12 03:00:00 7.3 3 Sur 5 Sudeste 0 966.5 0.1 68
2019-04-12 02:00:00 7.8 3 Sudoeste 9 Sur 0 966.7 0.7 70
2019-04-12 01:00:00 9.1 4 Sur 7 Sur 0 966.6 0.9 62
2019-04-12 00:00:00 9.5 2 Sur 8 Nordeste 0 966.4 1.4 64
2019-04-11 23:00:00 10.9 4 Sur 9 Oeste 0 966 1.3 58
2019-04-11 22:00:00 12.4 4 Sudeste 10 Nordeste 0 965.7 0.9 53
2019-04-11 21:00:00 15.5 5 Sudoeste 12 Oeste 0 965 0.1 37
2019-04-11 20:00:00 18.7 8 Noroeste 22 Oeste 0 964.7 -0.4 28
2019-04-11 19:00:00 18 4 Sur 13 Oeste 0 964.8 -0.8 30
2019-04-11 18:00:00 19.5 9 Sudoeste 16 Sudoeste 0 964.9 -1.1 29
2019-04-11 17:00:00 17.5 8 Oeste 22 Noroeste 0 965.1 -1.4 34
2019-04-11 16:00:00 18.5 10 Noroeste 22 Noroeste 0 965.6 -1.4 32
2019-04-11 15:00:00 17.2 9 Noroeste 24 Noroeste 0 966 -1.2 36
2019-04-11 14:00:00 16.8 8 Noroeste 17 Oeste 0 966.5 -0.5 35
2019-04-11 13:00:00 16.3 5 Oeste 14 Norte 0 967 0 44
2019-04-11 12:00:00 14.5 8 Noroeste 13 Oeste 0 967.2 0.4 49
2019-04-11 11:00:00 12.4 3 Noroeste 8 Oeste 0 967 0.5 61
2019-04-11 10:00:00 9.5 3 Norte 5 Norte 0 967 1 74
2019-04-11 09:00:00 5.5 2 Sudoeste 5 Nordeste 0 966.8 0.8 86
2019-04-11 08:00:00 3.2 0 Calma 4 Sudeste 0 966.5 0.8 87
2019-04-11 07:00:00 3.9 2 Este 4 Sudeste 0 966 0.6 86
2019-04-11 06:00:00 4.4 2 Sudoeste 5 Sur 0 966 0.6 84
2019-04-11 05:00:00 4.7 3 Sudoeste 4 Sudeste 0 965.7 0.5 86
2019-04-11 04:00:00 5.2 2 Sudeste 8 Sudoeste 0 965.4 0.1 82
2019-04-11 03:00:00 5.2 0 Calma 4 Norte 0 965.4 0.4 83
2019-04-11 02:00:00 6.2 3 Sur 5 Nordeste 0 965.2 0.3 80
2019-04-11 01:00:00 7.3 3 Este 6 Sudoeste 0 965.3 0.8 74
2019-04-11 00:00:00 8.3 3 Sudeste 6 Sudeste 0 965 1.8 73
2019-04-10 23:00:00 9.8 5 Sur 9 Sudeste 0 964.9 2.4 64
2019-04-10 22:00:00 11.3 2 Noroeste 24 Norte 0 964.5 2.3 57
2019-04-10 21:00:00 13.8 13 Noroeste 29 Noroeste 0 963.2 1 47
2019-04-10 20:00:00 16.1 18 Noroeste 39 Oeste 0 962.5 0.1 40
2019-04-10 19:00:00 16.5 22 Oeste 41 Noroeste 0 962.2 -0.6 39
2019-04-10 18:00:00 16.4 21 Noroeste 41 Oeste 0 962.2 -1 38
2019-04-10 17:00:00 14.9 22 Noroeste 41 Noroeste 0 962.4 -1.1 43
2019-04-10 16:00:00 15.3 23 Oeste 36 Oeste 0 962.8 -1.3 40
2019-04-10 15:00:00 15 18 Oeste 30 Oeste 0 963.2 -1 44
2019-04-10 14:00:00 14.2 17 Oeste 30 Noroeste 0 963.5 -0.9 48
2019-04-10 13:00:00 13.9 16 Oeste 31 Oeste 0 964.1 -0.3 52
2019-04-10 12:00:00 12 12 Oeste 26 Noroeste 0 964.2 0 63
2019-04-10 11:00:00 10.9 12 Oeste 29 Oeste 0 964.4 0.6 67
2019-04-10 10:00:00 9.5 13 Sudoeste 24 Sudoeste 0 964.4 0.8 75
2019-04-10 09:00:00 8.1 9 Sudoeste 21 Oeste 0 964.2 0.8 80
2019-04-10 08:00:00 6.9 13 Oeste 32 Oeste 0 963.8 0 86
2019-04-10 07:00:00 7 17 Oeste 31 Oeste 0 963.6 -0.2 85
2019-04-10 06:00:00 7 10 Oeste 31 Oeste 0 963.4 -0.6 83
2019-04-10 05:00:00 7.2 9 Oeste 33 Oeste 0 963.8 -0.3 81
2019-04-10 04:00:00 7.9 11 Oeste 26 Sudoeste 0 963.8 -0.3 78
2019-04-10 03:00:00 8.3 12 Oeste 25 Oeste 0 964 0 75
2019-04-10 02:00:00 9 15 Oeste 25 Oeste 0 964.1 0.2 72
2019-04-10 01:00:00 9.4 15 Oeste 28 Oeste 0 964.1 0.8 70
2019-04-10 00:00:00 10.3 15 Oeste 27 Oeste 0 964 1.4 66
2019-04-09 23:00:00 10.9 15 Oeste 34 Oeste 0 963.9 1.9 65
2019-04-09 22:00:00 12.4 19 Oeste 33 Oeste 0 963.3 1.4 56
2019-04-09 21:00:00 12.7 10 Oeste 35 Oeste 0 962.6 0.7 55
2019-04-09 20:00:00 14.7 19 Oeste 37 Oeste 0 962 -0.4 51
2019-04-09 19:00:00 14.4 17 Oeste 37 Oeste 0 961.9 -0.6 54
2019-04-09 18:00:00 14.9 21 Oeste 38 Oeste 0 961.9 -1.1 54
2019-04-09 17:00:00 14.4 18 Oeste 54 Oeste 0.8 962.4 -0.7 63
2019-04-09 16:00:00 14.6 21 Oeste 40 Sudoeste 0 962.5 -1.3 54
2019-04-09 15:00:00 11.1 21 Oeste 40 Oeste 1 963 -0.8 75
2019-04-09 14:00:00 11.7 22 Oeste 39 Oeste 0 963.1 -0.8 66
2019-04-09 13:00:00 11.8 20 Oeste 37 Sudoeste 0 963.8 -0.2 68
2019-04-09 12:00:00 11 20 Oeste 37 Oeste 0.2 963.8 -0.3 77
2019-04-09 11:00:00 8.7 14 Oeste 31 Oeste 4 963.9 0.4 81
2019-04-09 10:00:00 9.5 13 Oeste 32 Oeste 0 964 0.4 81
2019-04-09 09:00:00 8.6 13 Oeste 35 Oeste 1.2 964.1 0.4 86
2019-04-09 08:00:00 8.3 13 Sudoeste 28 Oeste 0 963.5 -0.3 84
2019-04-09 07:00:00 8.7 13 Oeste 27 Oeste 0 963.6 -0.2 84
2019-04-09 06:00:00 8.5 10 Sudoeste 22 Sudoeste 0 963.7 -0.3 83
2019-04-09 05:00:00 8.7 11 Sudoeste 27 Oeste 0 963.8 -0.1 81
2019-04-09 04:00:00 8.9 13 Oeste 23 Sudoeste 0 963.8 0.2 81
2019-04-09 03:00:00 8.7 11 Sudoeste 20 Sudoeste 0 964 0.4 81
2019-04-09 02:00:00 8.6 10 Sudoeste 18 Sudoeste 0 963.9 0.5 81
2019-04-09 01:00:00 8.9 9 Sudoeste 19 Oeste 0 963.6 0.7 79
2019-04-09 00:00:00 9.6 9 Oeste 18 Oeste 0 963.6 2 78
2019-04-08 23:00:00 9.8 9 Oeste 25 Sudoeste 0.2 963.4 2.1 79
2019-04-08 22:00:00 10.8 15 Oeste 28 Oeste 0.8 962.9 1.7 72
2019-04-08 21:00:00 12.6 14 Oeste 32 Oeste 0 961.6 0.4 58
2019-04-08 20:00:00 14.7 17 Oeste 31 Noroeste 0 961.3 -0.1 39
2019-04-08 19:00:00 16.5 18 Oeste 45 Oeste 0 961.2 -0.7 33
2019-04-08 18:00:00 16.7 24 Oeste 41 Oeste 0 961.2 -1.2 37
2019-04-08 17:00:00 15.9 21 Oeste 39 Oeste 0 961.4 -1.3 45
2019-04-08 16:00:00 16.6 19 Oeste 33 Oeste 0 961.9 -1.1 49
2019-04-08 15:00:00 15.7 13 Oeste 33 Oeste 0 962.4 -0.6 55
2019-04-08 14:00:00 14 16 Oeste 33 Oeste 0 962.7 0 61
2019-04-08 13:00:00 13.6 16 Oeste 25 Oeste 0 963 0.4 64
2019-04-08 12:00:00 14.1 14 Sudoeste 24 Oeste 0 963 0.6 72
2019-04-08 11:00:00 12.2 10 Sudoeste 21 Sudoeste 0 962.7 1 80
2019-04-08 10:00:00 11.7 13 Sudoeste 31 Oeste 0 962.6 0.9 80
2019-04-08 09:00:00 10.9 19 Sudoeste 41 Sudoeste 0.8 962.4 0.5 84
2019-04-08 08:00:00 10.8 16 Sudoeste 32 Sudoeste 0.2 961.7 -0.3 84
2019-04-08 07:00:00 11 13 Sudoeste 30 Sudoeste 0 961.7 -0.3 84
2019-04-08 06:00:00 11.3 18 Sudoeste 30 Sudoeste 1.4 961.9 -0.2 84
2019-04-08 05:00:00 11.4 13 Sudoeste 27 Sudoeste 0 962 -0.3 83
2019-04-08 04:00:00 11.5 16 Sudoeste 37 Oeste 0.2 962 -0.5 84
2019-04-08 03:00:00 11.7 19 Sudoeste 36 Sudoeste 0.2 962.1 -0.4 85
2019-04-08 02:00:00 11.9 15 Sudoeste 30 Sudoeste 0.2 962.3 -0.1 85
2019-04-08 01:00:00 11.7 11 Oeste 26 Oeste 0 962.5 0.5 85
2019-04-08 00:00:00 11.8 14 Oeste 27 Oeste 0 962.5 0.8 86
2019-04-07 23:00:00 11.7 12 Sudoeste 23 Sudoeste 0.2 962.4 0.6 88
2019-04-07 22:00:00 11.2 6 Sudoeste 15 Sudoeste 1.6 962 0.4 89
2019-04-07 21:00:00 11 7 Sur 16 Sur 0.8 961.7 0.2 88
2019-04-07 20:00:00 11.1 6 Sudoeste 17 Sudoeste 0.4 961.8 0 87
2019-04-07 19:00:00 11.2 11 Sudoeste 23 Sudoeste 0 961.6 -0.4 82
2019-04-07 18:00:00 12.2 9 Sudoeste 22 Sur 0 961.5 -0.6 72
2019-04-07 17:00:00 12.6 12 Oeste 29 Sudoeste 0 961.8 -0.3 64
2019-04-07 16:00:00 12.6 13 Sudoeste 26 Sudoeste 0 962 0 63
2019-04-07 15:00:00 12.4 12 Sudoeste 23 Oeste 0 962.1 0.4 62
2019-04-07 14:00:00 11.6 11 Sudoeste 23 Sudoeste 0 962.1 0.9 62
2019-04-07 13:00:00 11.2 15 Sudoeste 26 Sudoeste 0 962 1.3 65
2019-04-07 12:00:00 10.6 13 Oeste 25 Oeste 0 961.7 1.6 69
2019-04-07 11:00:00 9.8 13 Oeste 24 Oeste 0 961.2 1.8 74
2019-04-07 10:00:00 9.5 12 Oeste 28 Oeste 0 960.7 2 76
2019-04-07 09:00:00 8 15 Oeste 34 Oeste 0 960.1 2.1 81
2019-04-07 08:00:00 7.8 17 Oeste 31 Oeste 0 959.4 1.6 80
2019-04-07 07:00:00 7.7 18 Oeste 38 Oeste 0 958.7 1.2 81
2019-04-07 06:00:00 7.5 23 Oeste 42 Oeste 0 958 0.6 83
2019-04-07 05:00:00 7.6 22 Oeste 41 Sudoeste 0 957.8 0.4 84
2019-04-07 04:00:00 7.7 23 Oeste 45 Sudoeste 0.2 957.5 -0.2 84
2019-04-07 03:00:00 7.5 18 Oeste 41 Sudoeste 0.8 957.4 -0.1 83
2019-04-07 02:00:00 7.5 17 Sudoeste 31 Oeste 0 957.4 0.3 77
2019-04-07 01:00:00 7.7 14 Oeste 29 Oeste 0 957.7 1.2 76
2019-04-07 00:00:00 7.7 11 Oeste 28 Oeste 0 957.5 1.5 73
2019-04-06 23:00:00 8 22 Oeste 39 Oeste 0 957.1 1.7 71
2019-04-06 22:00:00 8.3 18 Sudoeste 36 Sudoeste 0 956.5 1.5 71
2019-04-06 21:00:00 8.5 13 Oeste 25 Oeste 0 956 1.4 66
2019-04-06 20:00:00 10.2 12 Oeste 31 Oeste 0 955.4 0.7 59
2019-04-06 19:00:00 9.8 17 Oeste 43 Noroeste 0 955 -0.2 59
2019-04-06 18:00:00 8.8 23 Oeste 39 Oeste 0 954.6 -0.5 68
2019-04-06 17:00:00 9.8 18 Oeste 42 Oeste 0.4 954.7 0.4 67
2019-04-06 16:00:00 7.6 26 Oeste 44 Noroeste 1.6 955.2 0.4 78
2019-04-06 15:00:00 3.8 19 Noroeste 62 Noroeste 2 955.1 0.3 86
2019-04-06 14:00:00 11.1 19 Oeste 37 Oeste 0 954.3 0 56
2019-04-06 13:00:00 9.3 21 Oeste 52 Sudoeste 0 954.8 0.5 69
2019-04-06 12:00:00 8.9 27 Oeste 45 Oeste 0.6 954.8 0.7 73
2019-04-06 11:00:00 7.6 18 Sudoeste 46 Sudoeste 0.4 954.3 0.6 78
2019-04-06 10:00:00 7.4 19 Oeste 37 Sudoeste 0 954.3 0.7 79
2019-04-06 09:00:00 6.7 21 Sudoeste 44 Oeste 0.6 954.1 0.8 84
2019-04-06 08:00:00 6.6 19 Oeste 36 Sudoeste 0.2 953.7 0.8 84
2019-04-06 07:00:00 6.7 16 Oeste 32 Sudoeste 0 953.6 0.4 79
2019-04-06 06:00:00 6.7 17 Oeste 35 Oeste 0 953.3 0 80
2019-04-06 05:00:00 6.6 15 Oeste 34 Oeste 0 952.9 -0.6 80
2019-04-06 04:00:00 6.7 18 Oeste 38 Oeste 0 953.2 -0.1 78
2019-04-06 03:00:00 6.6 25 Oeste 45 Oeste 0 953.3 0.4 78
2019-04-06 02:00:00 6.8 21 Oeste 39 Oeste 0 953.5 1 77
2019-04-06 01:00:00 6.8 22 Oeste 40 Oeste 0 953.3 1.5 78
2019-04-06 00:00:00 7.3 23 Oeste 40 Oeste 0 952.9 2 75
2019-04-05 23:00:00 7.4 18 Sudoeste 41 Oeste 0 952.5 2.3 74
2019-04-05 22:00:00 7.5 15 Sudoeste 32 Oeste 0 951.8 2.1 69
2019-04-05 21:00:00 7.5 20 Oeste 42 Sudoeste 0.4 950.9 1.3 68
2019-04-05 20:00:00 9.1 14 Sudoeste 35 Oeste 0 950.2 0.6 57
2019-04-05 19:00:00 11.3 19 Oeste 36 Sudoeste 0 949.7 0.4 45
2019-04-05 18:00:00 10.7 18 Oeste 40 Oeste 0 949.6 0.1 49
2019-04-05 17:00:00 10.1 22 Oeste 54 Oeste 0.4 949.6 -0.1 63
2019-04-05 16:00:00 9.4 21 Sudoeste 40 Oeste 0 949.3 -0.1 59
2019-04-05 15:00:00 8.7 13 Oeste 34 Oeste 0 949.5 0.1 67
2019-04-05 14:00:00 8.8 20 Oeste 37 Oeste 0 949.7 1.2 74
2019-04-05 13:00:00 8.6 13 Sudoeste 32 Sudoeste 0 949.4 1 76
2019-04-05 12:00:00 6.1 14 Sudoeste 31 Sudoeste 5.4 949.4 0.6 84
2019-04-05 11:00:00 8.3 10 Sur 22 Sur 0.6 948.5 -0.1 82
2019-04-05 10:00:00 7.5 12 Sur 20 Sudoeste 1 948.4 -0.4 83
2019-04-05 09:00:00 7.4 13 Sudoeste 27 Sur 0.6 948.8 -0.6 83
2019-04-05 08:00:00 7.3 16 Sur 31 Sur 0.4 948.6 -1 84
2019-04-05 07:00:00 7.1 11 Sur 22 Sur 1.8 948.8 -1.3 84
2019-04-05 06:00:00 6.7 12 Sudoeste 30 Sudoeste 3.8 949.4 -1.4 84
2019-04-05 05:00:00 7.3 15 Sudoeste 31 Sudoeste 0.6 949.6 -1.2 81
2019-04-05 04:00:00 7.8 7 Sudoeste 21 Oeste 0.2 950.1 -0.4 81
2019-04-05 03:00:00 8.3 9 Oeste 23 Noroeste 0 950.8 0.5 73
2019-04-05 02:00:00 9.6 13 Oeste 32 Oeste 0 950.8 0.5 61
2019-04-05 01:00:00 11.4 12 Oeste 31 Sudoeste 0 950.5 0.4 44
2019-04-05 00:00:00 12 12 Oeste 30 Oeste 0 950.3 0.2 38
2019-04-04 23:00:00 12.4 14 Oeste 30 Oeste 0 950.3 0.2 34
2019-04-04 22:00:00 12.9 14 Oeste 27 Sudoeste 0 950.1 0 27
2019-04-04 21:00:00 13.5 14 Oeste 32 Oeste 0 950.1 -0.3 23
2019-04-04 20:00:00 15.5 16 Oeste 31 Oeste 0 950.1 -0.6 21
2019-04-04 19:00:00 16.9 11 Sudoeste 30 Oeste 0 950.1 -1.5 21
2019-04-04 18:00:00 16.9 17 Oeste 31 Oeste 0 950.4 -2 20
2019-04-04 17:00:00 17.4 8 Sudoeste 26 Oeste 0 950.7 -2.5 23
2019-04-04 16:00:00 17 10 Sur 24 Sudoeste 0 951.6 -2.3 23
2019-04-04 15:00:00 15.9 6 Oeste 17 Sudoeste 0 952.4 -1.9 24
2019-04-04 14:00:00 14.8 6 Sudoeste 17 Nordeste 0 953.2 -1 26
2019-04-04 13:00:00 14 5 Nordeste 15 Nordeste 0 953.9 -0.4 30
2019-04-04 12:00:00 13 5 Nordeste 15 Nordeste 0 954.3 0.4 31
2019-04-04 11:00:00 11 6 Nordeste 10 Nordeste 0 954.2 1 34
2019-04-04 10:00:00 7.7 3 Norte 7 Oeste 0 954.3 1.6 50
2019-04-04 09:00:00 2.5 3 Norte 4 Norte 0 953.9 1.5 73
2019-04-04 08:00:00 0.1 3 Nordeste 4 Nordeste 0 953.2 0.7 78
2019-04-04 07:00:00 2.3 3 Sur 7 Sudeste 0 952.7 0.4 73
2019-04-04 06:00:00 2.3 3 Sur 8 Norte 0 952.4 -0.3 74
2019-04-04 05:00:00 3.7 4 Sudoeste 5 Oeste 0 952.5 -0.5 66
2019-04-04 04:00:00 3.3 2 Sur 5 Sur 0 952.3 -1 69
2019-04-04 03:00:00 5 0 Calma 7 Sudeste 0 952.7 -0.7 60
2019-04-04 02:00:00 6.5 4 Sudeste 9 Oeste 0 953 -0.8 50
2019-04-04 01:00:00 8.6 8 Oeste 12 Oeste 0 953.3 -0.1 42
2019-04-04 00:00:00 9.9 9 Oeste 18 Oeste 0 953.4 0.8 39
2019-04-03 23:00:00 10.9 10 Oeste 23 Oeste 0 953.8 1.3 36
2019-04-03 22:00:00 11.8 11 Oeste 25 Oeste 0 953.4 1 36
2019-04-03 21:00:00 13.2 12 Oeste 32 Noroeste 0 952.6 -0.1 32
2019-04-03 20:00:00 15.6 20 Noroeste 33 Oeste 0 952.5 -0.7 27
2019-04-03 19:00:00 17 24 Oeste 34 Oeste 0 952.4 -1.6 27
2019-04-03 18:00:00 18.1 18 Oeste 36 Oeste 0 952.7 -2.2 28
2019-04-03 17:00:00 18.2 20 Oeste 36 Oeste 0 953.2 -2.2 33
2019-04-03 16:00:00 17.9 14 Oeste 40 Sudoeste 0 954 -2.1 38
2019-04-03 15:00:00 16.6 19 Sudoeste 35 Oeste 0 954.9 -2 34
2019-04-03 14:00:00 16 20 Oeste 33 Oeste 0 955.4 -1.7 43
2019-04-03 13:00:00 15.1 13 Oeste 23 Oeste 0 956.1 -1.6 51
2019-04-03 12:00:00 13.8 9 Sudoeste 22 Oeste 0 956.9 -1.1 57
2019-04-03 11:00:00 12.2 13 Sudoeste 21 Sudoeste 0 957.1 -1.4 66
2019-04-03 10:00:00 11.1 5 Nordeste 21 Oeste 0 957.7 -0.7 74
2019-04-03 09:00:00 9.8 5 Sur 14 Oeste 0 958 -0.5 75
2019-04-03 08:00:00 8.8 6 Noroeste 14 Norte 0 958.5 -0.6 82
2019-04-03 07:00:00 9.2 5 Noroeste 11 Noroeste 0 958.4 -1.3 77
2019-04-03 06:00:00 10 4 Noroeste 14 Oeste 0 958.5 -1.9 69
2019-04-03 05:00:00 11.9 7 Sudoeste 18 Sudoeste 0 959.1 -1.9 61
2019-04-03 04:00:00 12 8 Sudoeste 19 Sudoeste 0 959.7 -1.8 61
2019-04-03 03:00:00 12.5 6 Oeste 16 Oeste 0 960.4 -1.3 61
2019-04-03 02:00:00 13.4 5 Sudoeste 10 Sudoeste 0 961 -0.7 56
2019-04-03 01:00:00 13.7 5 Oeste 12 Sudoeste 0 961.5 -0.2 55
2019-04-03 00:00:00 14.8 9 Sudoeste 19 Sudoeste 0 961.7 0.3 50
2019-04-02 23:00:00 15.5 10 Sudoeste 20 Sudoeste 0 961.7 0.3 48
2019-04-02 22:00:00 16.2 10 Sudoeste 21 Sudoeste 0 961.7 0.4 44
2019-04-02 21:00:00 17 17 Sudoeste 29 Sudoeste 0 961.4 -0.2 41
2019-04-02 20:00:00 18.8 13 Oeste 28 Oeste 0 961.4 -0.7 38
2019-04-02 19:00:00 20 15 Oeste 25 Oeste 0 961.3 -1.3 36
2019-04-02 18:00:00 20.1 16 Oeste 27 Oeste 0 961.6 -1.7 34
2019-04-02 17:00:00 20 17 Oeste 28 Oeste 0 962.1 -2 33
2019-04-02 16:00:00 19.7 11 Oeste 25 Oeste 0 962.6 -2.2 42
2019-04-02 15:00:00 18.7 12 Sudoeste 25 Sudoeste 0 963.3 -2 45
2019-04-02 14:00:00 17.6 10 Sudoeste 20 Oeste 0 964.1 -0.8 55
2019-04-02 13:00:00 15.9 8 Oeste 14 Oeste 0 964.8 0.1 62
2019-04-02 12:00:00 14.2 5 Oeste 10 Oeste 0 965.3 0.9 69
2019-04-02 11:00:00 12.3 5 Norte 10 Norte 0 964.9 1.1 80
2019-04-02 10:00:00 10.8 7 Oeste 10 Oeste 0 964.7 1 89
2019-04-02 09:00:00 9.2 4 Norte 6 Norte 0 964.4 0.8 89
2019-04-02 08:00:00 9.1 2 Nordeste 8 Norte 0 963.8 0.3 87
2019-04-02 07:00:00 9.7 5 Sur 8 Sur 0 963.7 -0.5 89
2019-04-02 06:00:00 9.5 5 Noroeste 8 Noroeste 0 963.6 -0.6 87
2019-04-02 05:00:00 11.3 3 Sudeste 10 Sudoeste 0 963.5 -0.5 83
2019-04-02 04:00:00 11.7 5 Oeste 10 Oeste 0 964.2 0.3 81
2019-04-02 03:00:00 11.6 5 Sudoeste 9 Sudoeste 0 964.2 0.3 80
2019-04-02 02:00:00 11.3 3 Sudoeste 8 Sudeste 0 964 0.3 81
2019-04-02 01:00:00 12.3 3 Sudeste 13 Oeste 0 963.9 1.1 77
2019-04-02 00:00:00 13 6 Oeste 17 Sur 0 963.9 1.8 71
2019-04-01 23:00:00 13.5 3 Sudoeste 10 Sudeste 0 963.7 2.4 64
2019-04-01 22:00:00 13.4 5 Nordeste 13 Sur 0 962.8 1.8 64
2019-04-01 21:00:00 14.6 4 Sur 13 Sur 0 962.1 1.3 62
2019-04-01 20:00:00 15.5 3 Sudeste 12 Oeste 0 961.3 0.3 60
2019-04-01 19:00:00 16.7 9 Oeste 19 Sudoeste 0 961 -0.3 54
2019-04-01 18:00:00 16.3 4 Oeste 12 Nordeste 0 960.8 -1.2 58
2019-04-01 17:00:00 15.6 4 Nordeste 18 Este 0 961 -1 57
2019-04-01 16:00:00 14.3 9 Este 18 Sur 2.2 961.3 -1.1 73
2019-04-01 15:00:00 15 4 Sur 14 Noroeste 0 962 -0.4 64
2019-04-01 14:00:00 15.9 10 Noroeste 14 Oeste 0 962 0 61
2019-04-01 13:00:00 14.6 5 Sur 12 Sur 0 962.4 1 66
2019-04-01 12:00:00 14 5 Oeste 8 Oeste 0 962.4 1.3 68
2019-04-01 11:00:00 12.8 3 Sudoeste 8 Oeste 0 962 1.4 68
2019-04-01 10:00:00 10.9 4 Oeste 9 Oeste 0 961.4 1.1 76
2019-04-01 09:00:00 9.8 4 Oeste 9 Oeste 0 961.1 1 83
2019-04-01 08:00:00 9.2 2 Noroeste 4 Norte 0 960.6 0.2 80
2019-04-01 07:00:00 9.5 3 Nordeste 6 Este 0 960.3 -0.2 80
2019-04-01 06:00:00 9.9 3 Nordeste 5 Norte 0 960.1 -0.5 79
2019-04-01 05:00:00 10.3 3 Nordeste 6 Nordeste 0 960.4 -0.2 77
2019-04-01 04:00:00 10.5 2 Oeste 9 Nordeste 0 960.5 -0.1 76
2019-04-01 03:00:00 11 4 Este 8 Este 0 960.6 0 73
2019-04-01 02:00:00 11.1 4 Este 12 Este 0 960.6 0.3 72
2019-04-01 01:00:00 10.7 3 Sudeste 5 Sudeste 0 960.6 0.9 71
2019-04-01 00:00:00 11.8 0 Calma 11 Sudeste 0 960.6 1.8 67
2019-03-31 23:00:00 13.2 6 Este 14 Este 0 960.3 1.9 61
2019-03-31 22:00:00 13.6 9 Este 19 Este 0 959.7 1.6 59
2019-03-31 21:00:00 14.8 11 Este 23 Este 0 958.8 1.1 53
2019-03-31 20:00:00 16.1 15 Este 24 Este 0 958.4 0.5 49
2019-03-31 19:00:00 17 12 Sudeste 22 Sudeste 0 958.1 -0.2 51
2019-03-31 18:00:00 17.6 13 Sudeste 25 Noroeste 0 957.7 -1.5 51
2019-03-31 17:00:00 19.7 7 Noroeste 22 Norte 0 957.9 -2.1 39
2019-03-31 16:00:00 20 5 Norte 21 Este 0 958.3 -2.4 38
2019-03-31 15:00:00 19.3 12 Nordeste 20 Nordeste 0 959.2 -1.9 44
2019-03-31 14:00:00 18.1 5 Noroeste 17 Nordeste 0 960 -1.1 47
2019-03-31 13:00:00 17.1 7 Norte 17 Nordeste 0 960.7 -0.1 49
2019-03-31 12:00:00 14.9 4 Nordeste 9 Nordeste 0 961.1 0.4 62
2019-03-31 11:00:00 12.4 2 Norte 6 Norte 0 961.1 0.8 69
2019-03-31 10:00:00 10.5 3 Sur 6 Sur 0 960.8 0.5 74
2019-03-31 09:00:00 7.7 0 Calma 9 Sudeste 0 960.7 0.5 84
2019-03-31 08:00:00 8.6 4 Sur 7 Sudeste 0 960.3 -0.5 84
2019-03-31 07:00:00 9.5 6 Sudoeste 10 Oeste 0 960.3 -1 85
2019-03-31 06:00:00 10.3 6 Sudoeste 10 Oeste 0 960.2 -1.7 81
2019-03-31 05:00:00 11.7 5 Noroeste 13 Sudeste 0 960.8 -2 75
2019-03-31 03:00:00 12.1 3 Sudeste 8 Sudeste 0 961.9 -0.5 67
2019-03-31 01:00:00 12.1 3 Este 16 Oeste 0 962.8 0.1 70
2019-03-31 00:00:00 11.1 10 Oeste 15 Oeste 0 962.4 -0.8 77
2019-03-30 23:00:00 12.3 3 Norte 21 Este 0 962.4 0.3 64
2019-03-30 22:00:00 13 11 Este 32 Sudeste 0 962.7 1.2 65
2019-03-30 21:00:00 14.5 21 Sudeste 51 Sur 1.4 963.2 1.5 59
2019-03-30 20:00:00 18.8 5 Sudeste 15 Nordeste 0 962.1 0.4 33
2019-03-30 19:00:00 19.9 10 Nordeste 19 Este 0 961.5 -0.8 28
2019-03-30 18:00:00 20.9 11 Este 27 Nordeste 0 961.7 -1.6 27
2019-03-30 17:00:00 22.3 8 Sudeste 20 Este 0 961.7 -2.6 24
2019-03-30 16:00:00 21.5 13 Este 25 Este 0 962.3 -3.3 24
2019-03-30 15:00:00 21.9 13 Este 28 Nordeste 0 963.3 -3.3 21
2019-03-30 14:00:00 20.6 15 Nordeste 30 Nordeste 0 964.3 -3.1 25
2019-03-30 13:00:00 18.3 4 Sudoeste 15 Norte 0 965.6 -1.9 34
2019-03-30 12:00:00 16 3 Sudoeste 9 Norte 0 966.6 -0.8 39
2019-03-30 11:00:00 12.9 5 Norte 9 Norte 0 967.4 0.2 48
2019-03-30 10:00:00 10.6 4 Oeste 8 Norte 0 967.5 0.1 51
2019-03-30 09:00:00 8.9 5 Noroeste 9 Sudoeste 0 967.4 -0.1 56
2019-03-30 08:00:00 7 4 Oeste 7 Oeste 0 967.2 -0.2 61
2019-03-30 07:00:00 7.3 2 Oeste 7 Oeste 0 967.4 -0.1 55
2019-03-30 06:00:00 6.8 4 Sudoeste 6 Sudoeste 0 967.5 0.1 51
2019-03-30 05:00:00 5.6 2 Oeste 9 Sudoeste 0 967.4 -0.1 56
2019-03-30 04:00:00 6.7 4 Oeste 7 Sur 0 967.5 -0.2 49
2019-03-30 03:00:00 6.5 6 Sudoeste 10 Sudeste 0 967.4 -0.4 51
2019-03-30 02:00:00 7.6 3 Noroeste 10 Sur 0 967.5 -0.3 47
2019-03-30 01:00:00 8.2 5 Sudoeste 8 Sudoeste 0 967.7 -0.1 47
2019-03-30 00:00:00 8.6 5 Sudoeste 7 Sudoeste 0 967.8 0.3 41
2019-03-29 23:00:00 10.1 4 Sudoeste 6 Sudoeste 0 967.8 0.7 37
2019-03-29 22:00:00 10.3 0 Calma 4 Norte 0 967.8 0.8 42
2019-03-29 21:00:00 13.2 3 Sudeste 6 Sudeste 0 967.5 0.5 30
2019-03-29 20:00:00 15.9 4 Sur 7 Sur 0 967.1 -0.1 25
2019-03-29 19:00:00 19.6 4 Norte 8 Norte 0 967 -0.6 14
2019-03-29 18:00:00 20.3 6 Sudeste 13 Sudeste 0 967 -1.3 12
2019-03-29 17:00:00 20.7 7 Nordeste 21 Sudeste 0 967.2 -1.8 12
2019-03-29 16:00:00 20.5 11 Nordeste 17 Este 0 967.6 -1.9 13
2019-03-29 15:00:00 20.3 10 Nordeste 23 Este 0 968.3 -2 13
2019-03-29 14:00:00 19.4 14 Nordeste 23 Este 0 969 -1.8 13
2019-03-29 13:00:00 18.6 11 Nordeste 23 Este 0 969.5 -1.7 15
2019-03-29 12:00:00 17.4 10 Este 23 Este 0 970.3 -1 18
2019-03-29 11:00:00 16 5 Este 15 Este 0 970.8 -0.2 25
2019-03-29 10:00:00 11.8 4 Oeste 10 Sudoeste 0 971.2 0.7 34
2019-03-29 09:00:00 9.7 4 Oeste 9 Oeste 0 971.3 1.2 43
2019-03-29 08:00:00 6.3 5 Oeste 9 Oeste 0 971 1 48
2019-03-29 07:00:00 5 6 Noroeste 10 Norte 0 970.5 0.4 50
2019-03-29 06:00:00 5.6 3 Norte 6 Sudoeste 0 970.1 -0.2 53
2019-03-29 05:00:00 6.4 2 Sur 6 Este 0 970 -0.3 49
2019-03-29 04:00:00 7.4 3 Sudoeste 7 Sudoeste 0 970.1 0.3 44
2019-03-29 03:00:00 9.5 2 Sudoeste 8 Sudoeste 0 970.3 0.4 38
2019-03-29 02:00:00 11.8 5 Norte 39 Sudeste 0 970.3 0.3 29
2019-03-29 01:00:00 14.4 24 Sudeste 37 Sudeste 0 969.8 -0.3 22
2019-03-29 00:00:00 15.3 19 Sudeste 37 Sudeste 0 969.9 0.2 19
2019-03-28 23:00:00 15.9 17 Este 32 Este 0 970 0.9 19
2019-03-28 22:00:00 14.9 9 Este 16 Este 0 970.1 1.2 21
2019-03-28 21:00:00 15.7 8 Este 12 Este 0 969.7 0.9 21
2019-03-28 20:00:00 17.2 5 Sudeste 13 Este 0 969.1 0 20
2019-03-28 19:00:00 20 10 Este 26 Nordeste 0 968.9 -0.7 14
2019-03-28 18:00:00 21 10 Nordeste 27 Sudeste 0 968.8 -1.6 14
2019-03-28 17:00:00 21.3 15 Este 31 Nordeste 0 969.1 -2.1 13
2019-03-28 16:00:00 21.2 13 Este 33 Sudeste 0 969.6 -2.3 12
2019-03-28 15:00:00 20.5 16 Sudeste 31 Este 0 970.4 -2.2 13
2019-03-28 14:00:00 20 20 Este 35 Este 0 971.2 -1.7 13
2019-03-28 13:00:00 18.9 22 Este 34 Este 0 971.9 -1.3 11
2019-03-28 12:00:00 17.7 23 Este 35 Este 0 972.6 -0.5 13
2019-03-28 11:00:00 16.1 18 Este 31 Este 0 972.9 0.2 15
2019-03-28 10:00:00 11.9 3 Sudoeste 8 Norte 0 973.2 0.9 36
2019-03-28 09:00:00 9.1 3 Noroeste 6 Oeste 0 973.1 1.1 46
2019-03-28 08:00:00 5.6 3 Sudoeste 8 Sudoeste 0 972.7 0.9 56
2019-03-28 07:00:00 4 3 Sudoeste 6 Sur 0 972.3 0.8 62
2019-03-28 06:00:00 4.8 5 Sur 8 Sudeste 0 972 0.5 56
2019-03-28 05:00:00 6.3 4 Sudoeste 9 Sudoeste 0 971.8 0.3 49
2019-03-28 04:00:00 6.9 4 Sudoeste 7 Sudoeste 0 971.5 0.3 48
2019-03-28 03:00:00 7.5 5 Sudoeste 8 Sudoeste 0 971.5 0.6 44
2019-03-28 02:00:00 7.4 4 Sudoeste 7 Sudoeste 0 971.5 1 44
2019-03-28 01:00:00 8.5 4 Sur 12 Oeste 0 971.2 1 38
2019-03-28 00:00:00 9.2 4 Noroeste 7 Noroeste 0 970.9 1.2 41
2019-03-27 23:00:00 9.5 4 Noroeste 21 Este 0 970.5 1.4 37
2019-03-27 22:00:00 11.4 4 Este 15 Este 0 970.2 1.6 31
2019-03-27 21:00:00 16.1 12 Sudeste 19 Sudeste 0 969.7 1.5 17
2019-03-27 20:00:00 16.6 9 Este 22 Este 0 969.1 1 17
2019-03-27 19:00:00 18.9 14 Este 27 Este 0 968.6 0.2 14
2019-03-27 18:00:00 20.2 12 Este 30 Este 0 968.2 -0.6 14
2019-03-27 17:00:00 20.6 17 Este 33 Este 0 968.1 -1.5 14
2019-03-27 16:00:00 20.6 17 Este 35 Este 0 968.4 -1.7 15
2019-03-27 15:00:00 20.2 22 Nordeste 36 Nordeste 0 968.8 -1.7 18
2019-03-27 14:00:00 19.5 19 Este 33 Este 0 969.6 -1.1 17
2019-03-27 13:00:00 18.4 18 Este 40 Este 0 970.1 -0.4 20
2019-03-27 12:00:00 16.5 17 Este 28 Este 0 970.5 0.3 24
2019-03-27 11:00:00 14.8 9 Este 24 Nordeste 0 970.7 0.8 29
2019-03-27 10:00:00 12.6 17 Nordeste 28 Nordeste 0 970.5 1.6 33
2019-03-27 09:00:00 10.5 13 Nordeste 22 Nordeste 0 970.2 2.1 42
2019-03-27 08:00:00 7.4 5 Nordeste 14 Este 0 969.9 2.5 57
2019-03-27 07:00:00 6.9 6 Este 14 Este 0 968.9 2 58
2019-03-27 06:00:00 8.4 3 Nordeste 15 Oeste 0 968.1 1.2 53
2019-03-27 05:00:00 8.8 8 Nordeste 20 Nordeste 0 967.4 0.7 53
2019-03-27 04:00:00 9.8 11 Nordeste 24 Nordeste 0 966.9 0.6 48
2019-03-27 03:00:00 11.1 7 Este 18 Este 0 966.9 1.2 45
2019-03-27 02:00:00 10.5 6 Nordeste 12 Norte 0 966.7 1.7 47
2019-03-27 01:00:00 12 6 Nordeste 17 Este 0 966.3 2 41
2019-03-27 00:00:00 13.8 11 Nordeste 33 Sudeste 0 965.7 1.7 41